Time;durP1;ratioP1;P1;durP2;ratioP2;P2;SDS_P1;SDS_P2;PMS_P1;PMS_P2;Temp;Humidity;BMP_temperature;BMP_pressure;BME280_temperature;BME280_humidity;BME280_pressure;Samples;Min_cycle;Max_cycle;Signal;HPM_P1;HPM_P2
2023/11/28 00:01:35;;;;;;;9.52;5.93;;;3.00;99.90;;;;;;5046142;28;20416;-67
2023/11/28 00:04:01;;;;;;;8.07;5.68;;;3.00;99.90;;;;;;5030168;28;20059;-67
2023/11/28 00:06:26;;;;;;;8.77;5.95;;;3.00;99.90;;;;;;5021159;28;20080;-67
2023/11/28 00:08:52;;;;;;;11.38;6.13;;;3.00;99.90;;;;;;5049958;28;20025;-67
2023/11/28 00:11:21;;;;;;;12.05;6.70;;;3.00;99.90;;;;;;5049660;28;20108;-68
2023/11/28 00:13:49;;;;;;;10.45;5.90;;;3.00;99.90;;;;;;5044544;28;20053;-67
2023/11/28 00:16:15;;;;;;;9.75;5.97;;;2.90;99.90;;;;;;5038125;28;20048;-67
2023/11/28 00:18:40;;;;;;;9.07;5.93;;;3.00;99.90;;;;;;5042469;28;20037;-68
2023/11/28 00:21:06;;;;;;;11.18;6.05;;;3.00;99.90;;;;;;5032678;28;20499;-67
2023/11/28 00:23:32;;;;;;;9.80;5.88;;;2.90;99.90;;;;;;5025228;28;20071;-67
2023/11/28 00:25:57;;;;;;;9.07;5.75;;;2.90;99.90;;;;;;5022447;28;20048;-67
2023/11/28 00:28:25;;;;;;;9.90;6.00;;;2.90;99.90;;;;;;5031784;28;20118;-67
2023/11/28 00:30:54;;;;;;;9.02;5.70;;;2.90;99.90;;;;;;5036797;28;20076;-67
2023/11/28 00:33:20;;;;;;;9.23;6.00;;;2.90;99.90;;;;;;5035880;28;20043;-67
2023/11/28 00:35:46;;;;;;;11.38;5.80;;;2.90;99.90;;;;;;5042097;28;20033;-67
2023/11/28 00:38:12;;;;;;;10.50;5.38;;;2.90;99.90;;;;;;5049341;28;20044;-67
2023/11/28 00:40:40;;;;;;;10.48;5.70;;;2.90;99.90;;;;;;5049381;28;20047;-67
2023/11/28 00:43:05;;;;;;;8.85;5.70;;;2.90;99.90;;;;;;5033273;28;20052;-67
2023/11/28 00:45:31;;;;;;;9.73;6.25;;;2.90;99.90;;;;;;5046889;28;20052;-67
2023/11/28 00:47:57;;;;;;;9.40;5.80;;;2.90;99.90;;;;;;5049049;28;20119;-67
2023/11/28 00:50:23;;;;;;;8.80;5.68;;;2.90;99.90;;;;;;5049501;28;20041;-67
2023/11/28 00:52:49;;;;;;;9.18;5.65;;;2.90;99.90;;;;;;5025956;28;20479;-67
2023/11/28 00:55:17;;;;;;;9.43;5.03;;;2.80;99.90;;;;;;5048990;28;20044;-67
2023/11/28 00:57:47;;;;;;;7.90;5.40;;;2.80;99.90;;;;;;5026071;28;20080;-67
2023/11/28 01:00:13;;;;;;;7.70;4.50;;;2.80;99.90;;;;;;5049787;28;20041;-67
2023/11/28 01:02:39;;;;;;;7.60;4.40;;;2.80;99.90;;;;;;5031030;28;20029;-67
2023/11/28 01:05:08;;;;;;;7.10;3.92;;;2.80;99.90;;;;;;5046183;28;20083;-67
2023/11/28 01:07:34;;;;;;;6.93;3.60;;;2.70;99.90;;;;;;5044097;28;20041;-67
2023/11/28 01:09:59;;;;;;;8.35;3.90;;;2.70;99.90;;;;;;5048806;28;20508;-67
2023/11/28 01:12:25;;;;;;;6.45;3.83;;;2.70;99.90;;;;;;5049707;28;20403;-68
2023/11/28 01:14:51;;;;;;;7.53;3.38;;;2.70;99.90;;;;;;5048981;28;20095;-67
2023/11/28 01:17:17;;;;;;;5.45;3.20;;;2.60;99.90;;;;;;5049069;28;20033;-67
2023/11/28 01:19:42;;;;;;;8.90;3.25;;;2.60;99.90;;;;;;5049266;28;20044;-68
2023/11/28 01:22:08;;;;;;;4.50;2.70;;;2.60;99.90;;;;;;5031204;28;20094;-67
2023/11/28 01:24:35;;;;;;;5.72;2.70;;;2.50;99.90;;;;;;5030900;28;20045;-68
2023/11/28 01:27:01;;;;;;;6.18;2.72;;;2.50;99.90;;;;;;5031209;28;20059;-68
2023/11/28 01:29:26;;;;;;;6.30;2.80;;;2.40;99.90;;;;;;5049753;28;20041;-67
2023/11/28 01:31:52;;;;;;;4.72;2.70;;;2.40;99.90;;;;;;5048951;28;20479;-67
2023/11/28 01:34:17;;;;;;;4.97;2.42;;;2.30;99.90;;;;;;5044158;28;20044;-67
2023/11/28 01:36:44;;;;;;;5.97;2.45;;;2.30;99.90;;;;;;5040433;28;20756;-67
2023/11/28 01:39:12;;;;;;;4.72;2.45;;;2.30;99.90;;;;;;5031568;28;20037;-67
2023/11/28 01:41:39;;;;;;;3.42;2.30;;;2.30;99.90;;;;;;5049027;28;20033;-67
2023/11/28 01:44:05;;;;;;;3.85;2.30;;;2.30;99.90;;;;;;5055437;28;20404;-67
2023/11/28 01:46:36;;;;;;;4.18;2.40;;;2.20;99.90;;;;;;5050294;28;20415;-68
2023/11/28 01:49:02;;;;;;;5.47;2.33;;;2.20;99.90;;;;;;5034499;28;20059;-67
2023/11/28 01:51:29;;;;;;;3.85;2.50;;;2.20;99.90;;;;;;5031004;28;20575;-68
2023/11/28 01:53:58;;;;;;;4.30;2.38;;;2.20;99.90;;;;;;5042820;28;20045;-68
2023/11/28 01:56:24;;;;;;;6.20;2.42;;;2.20;99.90;;;;;;5030272;28;20431;-67
2023/11/28 01:58:51;;;;;;;3.67;1.90;;;2.10;99.90;;;;;;5047828;28;20108;-68
2023/11/28 02:01:18;;;;;;;3.15;2.00;;;2.10;99.90;;;;;;5027813;28;20112;-68
2023/11/28 02:03:46;;;;;;;5.32;2.05;;;2.00;99.90;;;;;;5047966;28;20059;-67
2023/11/28 02:06:12;;;;;;;3.58;2.03;;;2.00;99.90;;;;;;5026176;28;20132;-68
2023/11/28 02:08:38;;;;;;;4.13;2.10;;;2.00;99.90;;;;;;5051975;28;20400;-68
2023/11/28 02:11:03;;;;;;;3.72;1.80;;;2.00;99.90;;;;;;5042254;28;20042;-68
2023/11/28 02:13:32;;;;;;;4.80;1.70;;;2.00;99.90;;;;;;5052499;28;20044;-68
2023/11/28 02:15:58;;;;;;;3.63;1.60;;;2.00;99.90;;;;;;5042127;28;20613;-68
2023/11/28 02:18:24;;;;;;;3.15;1.60;;;2.00;99.90;;;;;;5034599;28;20049;-68
2023/11/28 02:20:50;;;;;;;2.67;1.70;;;2.00;99.90;;;;;;5052190;28;20040;-68
2023/11/28 02:23:17;;;;;;;2.90;1.52;;;1.90;99.90;;;;;;5053098;28;20111;-68
2023/11/28 02:25:50;;;;;;;3.17;1.83;;;1.90;99.90;;;;;;5058868;28;20396;-67
2023/11/28 02:28:24;;;;;;;3.08;1.65;;;1.90;99.90;;;;;;5033574;28;20042;-67
2023/11/28 02:30:58;;;;;;;2.63;1.50;;;1.90;99.90;;;;;;5052385;28;20132;-67
2023/11/28 02:33:24;;;;;;;3.45;1.80;;;1.90;99.90;;;;;;5054138;28;20044;-68
2023/11/28 02:35:50;;;;;;;3.50;1.98;;;1.90;99.90;;;;;;5030435;28;20121;-68
2023/11/28 02:38:16;;;;;;;3.85;2.10;;;1.90;99.90;;;;;;5060349;28;20535;-68
2023/11/28 02:40:42;;;;;;;4.00;2.30;;;1.90;99.90;;;;;;5056826;28;20612;-68
2023/11/28 02:43:08;;;;;;;5.50;2.15;;;1.90;99.90;;;;;;5059395;28;20554;-68
2023/11/28 02:45:35;;;;;;;3.95;2.13;;;1.90;99.90;;;;;;5053350;28;20048;-68
2023/11/28 02:48:01;;;;;;;6.68;2.35;;;1.90;99.90;;;;;;5059159;28;20487;-67
2023/11/28 02:50:26;;;;;;;4.30;2.40;;;1.90;99.90;;;;;;5034067;28;20048;-68
2023/11/28 02:52:52;;;;;;;3.40;2.10;;;1.90;99.90;;;;;;5051348;28;20029;-68
2023/11/28 02:55:18;;;;;;;4.78;2.28;;;1.90;99.90;;;;;;5032143;28;20452;-68
2023/11/28 02:57:44;;;;;;;3.22;2.30;;;1.90;99.90;;;;;;5055116;28;20039;-68
2023/11/28 03:00:10;;;;;;;5.22;2.50;;;1.90;99.90;;;;;;5049384;28;20044;-68
2023/11/28 03:02:36;;;;;;;3.92;2.30;;;1.90;99.90;;;;;;5048537;28;20037;-68
2023/11/28 03:05:06;;;;;;;4.00;2.45;;;1.90;99.90;;;;;;5032824;28;20049;-67
2023/11/28 03:07:32;;;;;;;3.75;2.20;;;1.90;99.90;;;;;;5033364;28;20066;-67
2023/11/28 03:09:58;;;;;;;4.10;2.30;;;1.90;99.90;;;;;;5045391;28;20041;-68
2023/11/28 03:12:24;;;;;;;5.07;2.20;;;2.50;99.90;;;;;;5075714;22;20043;-67
2023/11/28 03:14:50;;;;;;;3.25;2.10;;;1.90;99.90;;;;;;5056064;28;20041;-67
2023/11/28 03:17:15;;;;;;;6.88;2.13;;;1.90;99.90;;;;;;5055178;28;20060;-67
2023/11/28 03:19:41;;;;;;;5.18;2.45;;;1.90;99.90;;;;;;5050938;28;20480;-67
2023/11/28 03:22:07;;;;;;;3.20;1.80;;;1.90;99.90;;;;;;5033810;28;20037;-67
2023/11/28 03:24:32;;;;;;;5.38;2.30;;;1.90;99.90;;;;;;5023700;28;20048;-67
2023/11/28 03:26:58;;;;;;;2.88;2.00;;;1.90;99.90;;;;;;5032746;28;20040;-67
2023/11/28 03:29:24;;;;;;;4.75;2.08;;;1.90;99.90;;;;;;5051169;28;20415;-67
2023/11/28 03:31:50;;;;;;;4.15;2.08;;;1.90;99.90;;;;;;5050975;28;20479;-67
2023/11/28 03:34:15;;;;;;;3.58;1.90;;;1.90;99.90;;;;;;5055181;28;20198;-67
2023/11/28 03:36:41;;;;;;;4.22;2.40;;;1.90;99.90;;;;;;5033048;28;20037;-67
2023/11/28 03:39:06;;;;;;;6.90;2.25;;;1.90;99.90;;;;;;5032591;28;20483;-67
2023/11/28 03:41:32;;;;;;;5.55;2.20;;;1.80;99.90;;;;;;5051053;28;20111;-67
2023/11/28 03:43:58;;;;;;;4.18;2.25;;;1.90;99.90;;;;;;5030848;28;20037;-67
2023/11/28 03:46:24;;;;;;;4.82;2.30;;;1.80;99.90;;;;;;5050412;28;20048;-67
2023/11/28 03:48:50;;;;;;;3.58;2.00;;;1.80;99.90;;;;;;5034197;28;20040;-67
2023/11/28 03:51:16;;;;;;;3.83;2.00;;;1.90;99.90;;;;;;5032300;28;20498;-67
2023/11/28 03:53:41;;;;;;;3.30;1.83;;;1.90;99.90;;;;;;5041517;28;20510;-67
2023/11/28 03:56:08;;;;;;;4.68;2.00;;;1.80;99.90;;;;;;5024866;28;20048;-67
2023/11/28 03:58:34;;;;;;;6.35;2.10;;;1.80;99.90;;;;;;5032323;28;20037;-67
2023/11/28 04:01:00;;;;;;;4.00;2.35;;;1.80;99.90;;;;;;5048801;28;20108;-67
2023/11/28 04:03:26;;;;;;;5.38;2.28;;;1.80;99.90;;;;;;5029080;28;20094;-67
2023/11/28 04:05:52;;;;;;;5.00;2.22;;;1.80;99.90;;;;;;5048582;28;20487;-67
2023/11/28 04:08:17;;;;;;;5.00;2.28;;;1.80;99.90;;;;;;5050159;28;20037;-67
2023/11/28 04:10:43;;;;;;;5.82;2.35;;;1.80;99.90;;;;;;5050848;28;20029;-67
2023/11/28 04:13:08;;;;;;;4.80;2.20;;;1.90;99.90;;;;;;5047073;28;20091;-67
2023/11/28 04:15:34;;;;;;;3.47;1.90;;;1.80;99.90;;;;;;5026311;28;20491;-67
2023/11/28 04:18:00;;;;;;;4.70;2.30;;;1.80;99.90;;;;;;5039659;28;20033;-67
2023/11/28 04:20:26;;;;;;;4.25;2.40;;;1.80;99.90;;;;;;5037160;28;20037;-67
2023/11/28 04:22:52;;;;;;;4.57;2.40;;;1.80;99.90;;;;;;5032608;28;20045;-67
2023/11/28 04:25:18;;;;;;;4.13;2.20;;;1.80;99.90;;;;;;5048710;28;20048;-67
2023/11/28 04:27:43;;;;;;;3.90;2.35;;;1.80;99.90;;;;;;5032366;28;20101;-67
2023/11/28 04:30:10;;;;;;;5.65;2.38;;;1.80;99.90;;;;;;5046454;28;20041;-67
2023/11/28 04:32:36;;;;;;;6.10;2.40;;;1.80;99.90;;;;;;5050007;28;20045;-67
2023/11/28 04:35:02;;;;;;;3.88;2.33;;;1.80;99.90;;;;;;5048446;28;20388;-67
2023/11/28 04:37:27;;;;;;;6.28;2.10;;;1.80;99.90;;;;;;5031776;28;20045;-67
2023/11/28 04:39:53;;;;;;;6.93;2.35;;;1.80;99.90;;;;;;5050568;28;20040;-67
2023/11/28 04:42:19;;;;;;;7.90;2.42;;;1.80;99.90;;;;;;5049396;28;20499;-67
2023/11/28 04:44:44;;;;;;;8.93;2.40;;;1.80;99.90;;;;;;5045234;28;20039;-67
2023/11/28 04:47:10;;;;;;;5.93;2.30;;;1.80;99.90;;;;;;5026795;28;20041;-67
2023/11/28 04:49:35;;;;;;;5.38;2.53;;;1.90;99.90;;;;;;5049198;28;20459;-67
2023/11/28 04:52:01;;;;;;;5.93;2.40;;;1.90;99.90;;;;;;5029827;28;20118;-67
2023/11/28 04:54:27;;;;;;;6.38;2.38;;;1.80;99.90;;;;;;5037135;28;20557;-67
2023/11/28 04:56:52;;;;;;;4.60;2.67;;;1.90;99.90;;;;;;5031227;28;20040;-67
2023/11/28 04:59:18;;;;;;;5.38;2.50;;;1.90;99.90;;;;;;5049314;28;20470;-67
2023/11/28 05:01:44;;;;;;;6.05;2.35;;;1.90;99.90;;;;;;5024857;28;20038;-67
2023/11/28 05:04:10;;;;;;;4.57;2.50;;;1.80;99.90;;;;;;5048334;28;20048;-67
2023/11/28 05:06:36;;;;;;;4.30;2.35;;;1.90;99.90;;;;;;5049413;28;20033;-67
2023/11/28 05:09:01;;;;;;;4.68;2.70;;;1.90;99.90;;;;;;5053723;28;20041;-67
2023/11/28 05:11:27;;;;;;;5.70;2.53;;;1.90;99.90;;;;;;5049013;28;20372;-67
2023/11/28 05:13:52;;;;;;;6.43;2.70;;;1.90;99.90;;;;;;5029262;28;20073;-67
2023/11/28 05:16:18;;;;;;;4.07;2.45;;;2.00;99.90;;;;;;5048810;28;20037;-67
2023/11/28 05:18:44;;;;;;;4.43;2.60;;;2.00;99.90;;;;;;5031969;28;20442;-67
2023/11/28 05:21:09;;;;;;;7.65;3.08;;;2.00;99.90;;;;;;5048989;28;20071;-67
2023/11/28 05:23:35;;;;;;;5.22;2.60;;;2.00;99.90;;;;;;5031678;28;20037;-67
2023/11/28 05:26:00;;;;;;;5.53;2.47;;;2.10;99.90;;;;;;5038849;28;20075;-67
2023/11/28 05:28:26;;;;;;;4.10;2.60;;;2.10;99.90;;;;;;5024827;28;20037;-67
2023/11/28 05:30:51;;;;;;;5.45;2.53;;;2.10;99.90;;;;;;5032248;28;20490;-67
2023/11/28 05:33:17;;;;;;;5.85;2.88;;;2.10;99.90;;;;;;5042145;28;20037;-67
2023/11/28 05:35:43;;;;;;;6.85;3.15;;;2.10;99.90;;;;;;5049847;28;20491;-67
2023/11/28 05:38:09;;;;;;;7.25;3.28;;;2.10;99.90;;;;;;5048174;28;20499;-67
2023/11/28 05:40:34;;;;;;;6.05;2.88;;;2.20;99.90;;;;;;5053686;28;20032;-67
2023/11/28 05:43:00;;;;;;;8.00;3.20;;;2.20;99.90;;;;;;5052202;28;20052;-67
2023/11/28 05:45:26;;;;;;;7.00;2.95;;;2.20;99.90;;;;;;5034435;28;20043;-67
2023/11/28 05:47:52;;;;;;;6.35;3.30;;;2.20;99.90;;;;;;5035234;28;20430;-67
2023/11/28 05:50:18;;;;;;;8.32;3.30;;;2.20;99.90;;;;;;5034395;28;20052;-67
2023/11/28 05:52:44;;;;;;;7.88;3.50;;;2.20;99.90;;;;;;5046773;28;20033;-67
2023/11/28 05:55:10;;;;;;;7.50;3.10;;;2.20;99.90;;;;;;5028575;28;20049;-67
2023/11/28 05:57:35;;;;;;;5.10;2.97;;;2.20;99.90;;;;;;5047122;28;20039;-67
2023/11/28 06:00:01;;;;;;;5.47;3.05;;;2.20;99.90;;;;;;5052889;28;20075;-67
2023/11/28 06:02:26;;;;;;;6.38;3.20;;;2.20;99.90;;;;;;5034415;28;20069;-67
2023/11/28 06:04:52;;;;;;;5.80;3.00;;;2.30;99.90;;;;;;5052512;28;20033;-67
2023/11/28 06:07:17;;;;;;;9.45;3.28;;;2.20;99.90;;;;;;5052793;28;20514;-68
2023/11/28 06:09:43;;;;;;;8.25;3.15;;;2.30;99.90;;;;;;5051945;28;20113;-67
2023/11/28 06:12:09;;;;;;;4.60;2.80;;;2.30;99.90;;;;;;5049952;28;20564;-67
2023/11/28 06:14:36;;;;;;;6.07;3.03;;;2.30;99.90;;;;;;5034561;28;20087;-68
2023/11/28 06:17:01;;;;;;;7.78;3.13;;;2.30;99.90;;;;;;5035147;28;20475;-67
2023/11/28 06:19:28;;;;;;;5.63;3.10;;;2.30;99.90;;;;;;5033354;28;20044;-68
2023/11/28 06:21:53;;;;;;;6.40;3.17;;;2.30;99.90;;;;;;5044947;28;20159;-67
2023/11/28 06:24:19;;;;;;;5.50;2.90;;;2.30;99.90;;;;;;5047592;28;20055;-68
2023/11/28 06:26:45;;;;;;;5.75;2.88;;;2.30;99.90;;;;;;5052228;28;20037;-67
2023/11/28 06:29:10;;;;;;;7.00;3.28;;;2.30;99.90;;;;;;5035851;28;20055;-68
2023/11/28 06:31:36;;;;;;;6.10;3.15;;;2.30;99.90;;;;;;5052511;28;20032;-67
2023/11/28 06:34:02;;;;;;;6.82;3.28;;;2.30;99.90;;;;;;5049999;28;20100;-68
2023/11/28 06:36:27;;;;;;;6.85;3.08;;;2.30;99.90;;;;;;5035596;28;20062;-68
2023/11/28 06:38:55;;;;;;;8.25;3.55;;;2.30;99.90;;;;;;5052269;28;20110;-68
2023/11/28 06:41:21;;;;;;;8.23;3.47;;;2.30;99.90;;;;;;5023248;28;20045;-67
2023/11/28 06:43:46;;;;;;;10.88;3.78;;;2.40;99.90;;;;;;5038040;28;20040;-68
2023/11/28 06:46:13;;;;;;;6.07;3.33;;;2.30;99.90;;;;;;5023371;28;20041;-68
2023/11/28 06:48:39;;;;;;;6.78;3.20;;;2.40;99.90;;;;;;5033199;28;20055;-68
2023/11/28 06:51:05;;;;;;;8.75;3.72;;;2.40;99.90;;;;;;5028949;28;20127;-68
2023/11/28 06:53:31;;;;;;;6.47;3.33;;;2.30;99.90;;;;;;5051456;28;20063;-67
2023/11/28 06:55:56;;;;;;;8.85;3.25;;;2.40;99.90;;;;;;5050627;28;20052;-68
2023/11/28 06:58:22;;;;;;;7.15;3.55;;;2.30;99.90;;;;;;5050528;28;20394;-68
2023/11/28 07:00:47;;;;;;;6.32;3.90;;;2.30;99.90;;;;;;5030074;28;20039;-68
2023/11/28 07:03:13;;;;;;;8.40;3.47;;;2.40;99.90;;;;;;5049660;28;20116;-68
2023/11/28 07:05:39;;;;;;;8.55;3.60;;;2.40;99.90;;;;;;5050097;28;20033;-71
2023/11/28 07:08:05;;;;;;;5.82;3.15;;;2.40;99.90;;;;;;5021458;28;20045;-67
2023/11/28 07:10:31;;;;;;;8.00;3.80;;;2.40;99.90;;;;;;5048998;28;20056;-68
2023/11/28 07:12:58;;;;;;;8.35;4.45;;;2.40;99.90;;;;;;5046588;28;20025;-67
2023/11/28 07:15:23;;;;;;;12.57;6.35;;;2.40;99.90;;;;;;5050030;28;20033;-67
2023/11/28 07:17:49;;;;;;;10.52;6.07;;;2.40;99.90;;;;;;5053425;28;20051;-66
2023/11/28 07:20:15;;;;;;;11.63;6.05;;;2.30;99.90;;;;;;5051486;28;20037;-66
2023/11/28 07:22:41;;;;;;;9.55;6.20;;;2.40;99.90;;;;;;5036352;28;20043;-66
2023/11/28 07:25:09;;;;;;;11.13;6.03;;;2.40;99.90;;;;;;5030533;28;20049;-67
2023/11/28 07:27:35;;;;;;;15.95;10.80;;;2.40;99.90;;;;;;5046705;28;20041;-67
2023/11/28 07:30:01;;;;;;;23.88;16.58;;;2.30;99.90;;;;;;5045460;28;20059;-67
2023/11/28 07:32:27;;;;;;;13.40;7.45;;;2.30;99.90;;;;;;5046024;28;20518;-67
2023/11/28 07:34:52;;;;;;;10.48;6.68;;;2.30;99.90;;;;;;5022590;28;20037;-67
2023/11/28 07:37:18;;;;;;;10.23;5.00;;;2.30;99.90;;;;;;5038048;28;20049;-67
2023/11/28 07:39:43;;;;;;;16.38;9.35;;;2.30;99.90;;;;;;5050756;28;20167;-67
2023/11/28 07:42:09;;;;;;;14.95;8.50;;;2.30;99.90;;;;;;5050418;28;20112;-67
2023/11/28 07:44:35;;;;;;;48.88;27.83;;;2.30;99.90;;;;;;5038695;28;20049;-67
2023/11/28 07:47:02;;;;;;;21.05;12.00;;;2.20;99.90;;;;;;5028905;28;20402;-67
2023/11/28 07:49:27;;;;;;;12.73;7.68;;;2.20;99.90;;;;;;5046487;28;20124;-67
2023/11/28 07:51:53;;;;;;;9.85;7.20;;;2.20;99.90;;;;;;5029024;28;20116;-67
2023/11/28 07:54:18;;;;;;;13.93;6.03;;;2.20;99.90;;;;;;5028303;28;20045;-67
2023/11/28 07:56:44;;;;;;;10.27;4.57;;;2.10;99.90;;;;;;5015835;28;20055;-67
2023/11/28 07:59:11;;;;;;;9.93;4.32;;;2.10;99.90;;;;;;5037685;28;20135;-67
2023/11/28 08:01:36;;;;;;;8.75;4.90;;;2.10;99.90;;;;;;5037969;28;20726;-67
2023/11/28 08:04:02;;;;;;;9.77;5.35;;;2.10;99.90;;;;;;5050944;28;20055;-66
2023/11/28 08:06:28;;;;;;;33.13;22.50;;;1.10;99.90;;;;;;5047363;28;20076;-66
2023/11/28 08:08:53;;;;;;;29.00;23.60;;;2.00;99.90;;;;;;5050479;28;20067;-67
2023/11/28 08:11:19;;;;;;;16.67;12.15;;;2.00;99.90;;;;;;5029785;28;20036;-66
2023/11/28 08:13:45;;;;;;;15.90;8.70;;;2.00;99.90;;;;;;5046158;28;20040;-66
2023/11/28 08:16:11;;;;;;;9.00;6.47;;;2.00;99.90;;;;;;5049297;28;20073;-67
2023/11/28 08:18:36;;;;;;;9.73;5.60;;;2.00;99.90;;;;;;5046162;28;20073;-66
2023/11/28 08:21:05;;;;;;;8.68;4.45;;;2.00;99.90;;;;;;5048938;28;20152;-66
2023/11/28 08:23:32;;;;;;;10.48;6.30;;;2.00;99.90;;;;;;5027408;28;20072;-66
2023/11/28 08:25:58;;;;;;;10.48;5.07;;;1.90;99.90;;;;;;5049881;28;20571;-66
2023/11/28 08:28:24;;;;;;;7.22;4.65;;;1.90;99.90;;;;;;5032475;28;20104;-67
2023/11/28 08:30:50;;;;;;;9.18;5.18;;;2.00;99.90;;;;;;5048655;28;20376;-67
2023/11/28 08:33:16;;;;;;;10.88;4.93;;;2.00;99.90;;;;;;5031092;28;20041;-66
2023/11/28 08:35:42;;;;;;;11.75;4.80;;;2.00;99.90;;;;;;5049496;28;20041;-67
2023/11/28 08:38:07;;;;;;;11.90;4.72;;;2.00;99.90;;;;;;5036257;28;20041;-66
2023/11/28 08:40:33;;;;;;;6.90;3.67;;;2.00;99.90;;;;;;5047932;28;20037;-66
2023/11/28 08:42:59;;;;;;;9.18;4.70;;;2.00;99.90;;;;;;5032165;28;20037;-66
2023/11/28 08:45:24;;;;;;;11.98;5.45;;;2.10;99.90;;;;;;5049538;28;20044;-66
2023/11/28 08:47:50;;;;;;;12.35;5.65;;;2.00;99.90;;;;;;5044328;28;20495;-67
2023/11/28 08:50:15;;;;;;;14.57;7.35;;;2.10;99.90;;;;;;5030325;28;20395;-66
2023/11/28 08:52:41;;;;;;;14.60;7.97;;;2.10;99.90;;;;;;5032080;28;20048;-66
2023/11/28 08:55:07;;;;;;;14.23;7.85;;;2.10;99.90;;;;;;5045063;28;20041;-67
2023/11/28 08:57:35;;;;;;;16.83;10.13;;;2.10;99.90;;;;;;5049752;28;20032;-66
2023/11/28 09:00:05;;;;;;;14.05;9.25;;;2.10;99.90;;;;;;5040428;28;20044;-67
2023/11/28 09:02:31;;;;;;;19.75;13.40;;;2.10;99.90;;;;;;5049567;28;20048;-66
2023/11/28 09:04:56;;;;;;;21.45;14.70;;;2.10;99.90;;;;;;5046266;28;20049;-66
2023/11/28 09:07:22;;;;;;;17.55;13.30;;;2.10;99.90;;;;;;5049411;28;20029;-67
2023/11/28 09:09:48;;;;;;;12.38;9.02;;;2.10;99.90;;;;;;5049619;28;20540;-66
2023/11/28 09:12:17;;;;;;;23.73;16.80;;;2.10;99.90;;;;;;5030684;28;20379;-67
2023/11/28 09:14:44;;;;;;;34.20;24.08;;;2.20;99.90;;;;;;5047655;28;20052;-66
2023/11/28 09:17:09;;;;;;;30.55;21.60;;;2.20;99.90;;;;;;5050753;28;20040;-66
2023/11/28 09:19:35;;;;;;;27.10;15.45;;;2.20;99.90;;;;;;5053032;28;20033;-66
2023/11/28 09:22:02;;;;;;;38.88;22.40;;;2.20;99.90;;;;;;5049947;28;20031;-67
2023/11/28 09:24:31;;;;;;;29.48;18.42;;;2.30;99.90;;;;;;5048698;28;20369;-66
2023/11/28 09:26:58;;;;;;;64.22;45.08;;;2.30;99.90;;;;;;5053454;28;20127;-66
2023/11/28 09:29:23;;;;;;;58.63;40.60;;;2.30;99.90;;;;;;5053282;28;20068;-66
2023/11/28 09:31:49;;;;;;;33.05;23.58;;;2.30;99.90;;;;;;5051088;28;20072;-66
2023/11/28 09:34:15;;;;;;;26.55;13.85;;;2.30;99.90;;;;;;5047894;28;20037;-66
2023/11/28 09:36:41;;;;;;;14.68;8.10;;;2.30;99.90;;;;;;5050412;28;20493;-66
2023/11/28 09:39:09;;;;;;;10.27;5.07;;;2.30;99.90;;;;;;5032319;28;20112;-66
2023/11/28 09:41:38;;;;;;;10.85;5.07;;;2.40;99.90;;;;;;5034433;28;20049;-67
2023/11/28 09:44:04;;;;;;;7.00;3.80;;;2.40;99.90;;;;;;5052733;28;20040;-66
2023/11/28 09:46:31;;;;;;;7.45;4.20;;;2.40;99.90;;;;;;5047259;28;20491;-66
2023/11/28 09:49:00;;;;;;;9.40;4.63;;;2.40;99.90;;;;;;5032352;28;20073;-66
2023/11/28 09:51:27;;;;;;;8.43;4.28;;;2.40;99.90;;;;;;5050451;28;20037;-66
2023/11/28 09:53:59;;;;;;;7.20;4.03;;;2.40;99.90;;;;;;5050070;28;20042;-66
2023/11/28 09:56:26;;;;;;;12.43;4.72;;;2.50;99.90;;;;;;5031700;28;20040;-66
2023/11/28 09:58:57;;;;;;;8.98;4.70;;;2.50;99.90;;;;;;5052505;28;20487;-66
2023/11/28 10:01:27;;;;;;;10.23;4.85;;;2.50;99.90;;;;;;5052239;28;20033;-66
2023/11/28 10:03:53;;;;;;;13.35;4.95;;;2.50;99.90;;;;;;5049044;28;20048;-66
2023/11/28 10:06:21;;;;;;;12.20;5.20;;;2.50;99.90;;;;;;5029238;28;20495;-67
2023/11/28 10:08:55;;;;;;;8.25;4.78;;;2.40;99.90;;;;;;5052206;28;20052;-67
2023/11/28 10:11:23;;;;;;;9.02;4.55;;;2.50;99.90;;;;;;5030713;28;20045;-67
2023/11/28 10:13:49;;;;;;;6.78;4.10;;;2.50;99.90;;;;;;5044688;28;20047;-66
2023/11/28 10:16:15;;;;;;;8.55;4.57;;;2.50;99.90;;;;;;5050346;28;20029;-67
2023/11/28 10:18:46;;;;;;;9.00;4.32;;;2.50;99.90;;;;;;5051718;28;20079;-67
2023/11/28 10:21:13;;;;;;;8.43;4.78;;;2.50;99.90;;;;;;5051711;28;20048;-67
2023/11/28 10:23:44;;;;;;;8.52;4.10;;;2.50;99.90;;;;;;5050698;28;20043;-67
2023/11/28 10:26:11;;;;;;;7.18;3.72;;;2.60;99.90;;;;;;5033390;28;20095;-67
2023/11/28 10:28:36;;;;;;;5.75;3.53;;;2.60;99.90;;;;;;5052022;28;20037;-67
2023/11/28 10:31:06;;;;;;;7.90;4.78;;;2.70;99.90;;;;;;5033415;28;20044;-67
2023/11/28 10:33:32;;;;;;;8.70;5.07;;;2.70;99.90;;;;;;5050578;28;20090;-67
2023/11/28 10:35:57;;;;;;;8.38;4.07;;;2.80;99.90;;;;;;5032849;28;20044;-67
2023/11/28 10:38:23;;;;;;;7.07;3.92;;;2.80;99.90;;;;;;5051230;28;20037;-67
2023/11/28 10:40:50;;;;;;;9.00;3.55;;;2.90;99.90;;;;;;5033581;28;20673;-67
2023/11/28 10:43:16;;;;;;;6.30;3.42;;;2.90;99.90;;;;;;5051567;28;20113;-67
2023/11/28 10:45:44;;;;;;;8.50;3.03;;;2.90;99.90;;;;;;5045897;28;20438;-67
2023/11/28 10:48:10;;;;;;;8.25;3.42;;;3.00;99.90;;;;;;5049124;28;20049;-67
2023/11/28 10:50:35;;;;;;;6.72;3.05;;;3.00;99.90;;;;;;5029376;28;20045;-67
2023/11/28 10:53:05;;;;;;;4.68;2.92;;;3.10;99.90;;;;;;5032238;28;20064;-67
2023/11/28 10:55:41;;;;;;;5.45;3.08;;;3.10;99.90;;;;;;5045397;28;20044;-67
2023/11/28 10:58:16;;;;;;;6.75;3.53;;;3.10;99.90;;;;;;5034756;28;20082;-67
2023/11/28 11:00:45;;;;;;;7.10;3.35;;;3.10;99.90;;;;;;5032311;28;20052;-67
2023/11/28 11:03:12;;;;;;;7.28;3.75;;;3.20;99.90;;;;;;5030533;28;20048;-67
2023/11/28 11:05:39;;;;;;;6.80;3.60;;;3.20;99.90;;;;;;5047561;28;20494;-67
2023/11/28 11:08:04;;;;;;;7.65;3.72;;;3.20;99.90;;;;;;5034469;28;20451;-67
2023/11/28 11:10:30;;;;;;;7.30;3.75;;;3.20;99.90;;;;;;5052573;28;20120;-67
2023/11/28 11:13:07;;;;;;;6.32;3.60;;;3.30;99.90;;;;;;5046946;28;20056;-67
2023/11/28 11:15:55;;;;;;;5.22;3.00;;;3.40;99.90;;;;;;5039186;28;20396;-67
2023/11/28 11:18:42;;;;;;;8.05;3.22;;;3.40;99.90;;;;;;5023921;28;20055;-67
2023/11/28 11:21:13;;;;;;;7.65;3.17;;;3.50;99.90;;;;;;5045942;28;20511;-68
2023/11/28 11:23:41;;;;;;;7.05;2.90;;;3.50;99.90;;;;;;5043283;28;20041;-68
2023/11/28 11:26:07;;;;;;;6.65;3.58;;;3.60;99.90;;;;;;5029707;28;20032;-68
2023/11/28 11:28:33;;;;;;;5.82;3.08;;;3.60;99.90;;;;;;5044208;28;20041;-68
2023/11/28 11:31:12;;;;;;;8.05;3.33;;;3.60;99.90;;;;;;5045492;28;20407;-68
2023/11/28 11:33:38;;;;;;;7.38;4.03;;;3.60;99.90;;;;;;5040562;28;20105;-68
2023/11/28 11:36:08;;;;;;;8.02;4.15;;;3.60;99.90;;;;;;5045664;28;20044;-67
2023/11/28 11:38:35;;;;;;;6.40;3.55;;;3.60;99.90;;;;;;5027288;28;20111;-67
2023/11/28 11:41:02;;;;;;;6.47;4.25;;;4.00;99.90;;;;;;5042578;28;20147;-67
2023/11/28 11:43:28;;;;;;;8.15;3.58;;;3.60;99.90;;;;;;5026363;28;20112;-67
2023/11/28 11:46:06;;;;;;;7.05;3.60;;;3.60;99.90;;;;;;5038737;28;20116;-68
2023/11/28 11:48:33;;;;;;;7.50;3.60;;;3.60;99.90;;;;;;5042837;28;20037;-68
2023/11/28 11:51:00;;;;;;;6.72;3.30;;;3.60;99.90;;;;;;5044887;28;20041;-68
2023/11/28 11:53:27;;;;;;;7.43;3.50;;;3.70;99.90;;;;;;5028227;28;20037;-68
2023/11/28 11:55:53;;;;;;;5.30;2.72;;;3.70;99.90;;;;;;5025011;28;20116;-68
2023/11/28 11:58:19;;;;;;;4.30;2.90;;;3.80;99.90;;;;;;5046947;28;20037;-67
2023/11/28 12:00:46;;;;;;;5.55;2.80;;;3.80;99.90;;;;;;5035539;28;20376;-67
2023/11/28 12:03:12;;;;;;;5.68;2.75;;;3.90;99.90;;;;;;5025161;28;20051;-67
2023/11/28 12:05:48;;;;;;;6.18;3.00;;;4.00;99.90;;;;;;5048892;28;20036;-67
2023/11/28 12:08:13;;;;;;;6.82;3.50;;;4.10;99.90;;;;;;5027780;28;20137;-67
2023/11/28 12:10:39;;;;;;;6.80;3.05;;;4.20;99.90;;;;;;5048647;28;20135;-67
2023/11/28 12:13:04;;;;;;;5.65;2.90;;;4.20;99.90;;;;;;5041664;28;20040;-67
2023/11/28 12:15:31;;;;;;;6.65;2.80;;;4.30;99.90;;;;;;5046025;28;20028;-67
2023/11/28 12:18:13;;;;;;;6.80;3.03;;;4.30;99.90;;;;;;5044927;28;20029;-68
2023/11/28 12:20:39;;;;;;;5.10;3.00;;;4.30;99.90;;;;;;5039335;28;20255;-67
2023/11/28 12:23:08;;;;;;;7.13;2.90;;;4.40;99.90;;;;;;5047006;28;20040;-68
2023/11/28 12:25:37;;;;;;;4.85;2.85;;;4.60;99.90;;;;;;5022409;28;20126;-68
2023/11/28 12:28:03;;;;;;;5.60;2.97;;;4.70;99.90;;;;;;5029232;28;20049;-68
2023/11/28 12:30:30;;;;;;;8.20;2.83;;;4.80;99.90;;;;;;5038646;28;20090;-67
2023/11/28 12:32:57;;;;;;;6.15;3.88;;;5.00;99.90;;;;;;5027586;28;20132;-67
2023/11/28 12:35:25;;;;;;;7.47;3.50;;;5.00;99.90;;;;;;5044887;28;20037;-67
2023/11/28 12:37:51;;;;;;;5.03;3.55;;;5.00;99.90;;;;;;5031424;28;20041;-67
2023/11/28 12:40:18;;;;;;;7.30;3.40;;;5.00;99.90;;;;;;5029017;28;20071;-67
2023/11/28 12:42:47;;;;;;;5.93;3.28;;;5.20;99.90;;;;;;5040970;28;20091;-67
2023/11/28 12:45:13;;;;;;;5.63;3.13;;;5.20;99.90;;;;;;5042950;28;20047;-67
2023/11/28 12:47:40;;;;;;;5.22;3.20;;;5.20;99.90;;;;;;5026001;28;20045;-67
2023/11/28 12:50:08;;;;;;;6.97;3.25;;;5.20;99.90;;;;;;5022127;28;20052;-67
2023/11/28 12:52:38;;;;;;;4.85;2.70;;;5.40;99.90;;;;;;5027513;28;20075;-67